sensor_id;sensor_type;location;lat;lon;timestamp;pressure;altitude;pressure_sealevel;temperature;humidity
30598;BME280;17365;48.878;8.334;2024-03-02T00:00:34;98910.50;;;4.80;100.00
30598;BME280;17365;48.878;8.334;2024-03-02T00:03:00;98909.63;;;4.78;100.00
30598;BME280;17365;48.878;8.334;2024-03-02T00:05:25;98907.94;;;4.82;100.00
30598;BME280;17365;48.878;8.334;2024-03-02T00:07:57;98906.06;;;4.55;100.00
30598;BME280;17365;48.878;8.334;2024-03-02T00:10:39;98900.16;;;4.68;100.00
30598;BME280;17365;48.878;8.334;2024-03-02T00:13:08;98893.25;;;4.62;100.00
30598;BME280;17365;48.878;8.334;2024-03-02T00:15:47;98898.38;;;4.53;100.00
30598;BME280;17365;48.878;8.334;2024-03-02T00:18:18;98893.25;;;4.61;100.00
30598;BME280;17365;48.878;8.334;2024-03-02T00:20:47;98894.16;;;4.69;100.00
30598;BME280;17365;48.878;8.334;2024-03-02T00:23:16;98893.31;;;4.72;100.00
30598;BME280;17365;48.878;8.334;2024-03-02T00:25:53;98895.88;;;4.67;100.00
30598;BME280;17365;48.878;8.334;2024-03-02T00:28:35;98897.47;;;4.50;100.00
30598;BME280;17365;48.878;8.334;2024-03-02T00:31:11;98895.88;;;4.70;100.00
30598;BME280;17365;48.878;8.334;2024-03-02T00:33:41;98904.44;;;4.66;100.00
30598;BME280;17365;48.878;8.334;2024-03-02T00:36:07;98903.59;;;4.68;100.00
30598;BME280;17365;48.878;8.334;2024-03-02T00:38:34;98901.00;;;4.65;100.00
30598;BME280;17365;48.878;8.334;2024-03-02T00:41:06;98905.31;;;4.71;100.00
30598;BME280;17365;48.878;8.334;2024-03-02T00:43:41;98908.66;;;4.59;100.00
30598;BME280;17365;48.878;8.334;2024-03-02T00:46:08;98907.63;;;4.31;100.00
30598;BME280;17365;48.878;8.334;2024-03-02T00:48:33;98906.06;;;4.53;100.00
30598;BME280;17365;48.878;8.334;2024-03-02T00:51:02;98914.31;;;4.13;100.00
30598;BME280;17365;48.878;8.334;2024-03-02T00:53:31;98908.56;;;4.44;100.00
30598;BME280;17365;48.878;8.334;2024-03-02T00:55:59;98913.72;;;4.46;100.00
30598;BME280;17365;48.878;8.334;2024-03-02T00:58:27;98909.44;;;4.45;100.00
30598;BME280;17365;48.878;8.334;2024-03-02T01:00:56;98916.28;;;4.46;100.00
30598;BME280;17365;48.878;8.334;2024-03-02T01:03:23;98915.34;;;4.36;100.00
30598;BME280;17365;48.878;8.334;2024-03-02T01:05:49;98915.28;;;4.30;100.00
30598;BME280;17365;48.878;8.334;2024-03-02T01:08:14;98917.13;;;4.43;100.00
30598;BME280;17365;48.878;8.334;2024-03-02T01:10:40;98914.50;;;4.38;100.00
30598;BME280;17365;48.878;8.334;2024-03-02T01:13:05;98923.91;;;4.32;100.00
30598;BME280;17365;48.878;8.334;2024-03-02T01:15:31;98923.84;;;4.27;100.00
30598;BME280;17365;48.878;8.334;2024-03-02T01:17:56;98923.91;;;4.32;100.00
30598;BME280;17365;48.878;8.334;2024-03-02T01:20:21;98923.66;;;4.06;100.00
30598;BME280;17365;48.878;8.334;2024-03-02T01:22:47;98917.81;;;4.24;100.00
30598;BME280;17365;48.878;8.334;2024-03-02T01:25:13;98914.22;;;3.99;100.00
30598;BME280;17365;48.878;8.334;2024-03-02T01:27:40;98914.88;;;3.79;100.00
30598;BME280;17365;48.878;8.334;2024-03-02T01:30:06;98921.53;;;3.62;100.00
30598;BME280;17365;48.878;8.334;2024-03-02T01:32:31;98919.22;;;3.87;100.00
30598;BME280;17365;48.878;8.334;2024-03-02T01:34:57;98921.69;;;3.76;100.00
30598;BME280;17365;48.878;8.334;2024-03-02T01:37:25;98922.66;;;3.87;100.00
30598;BME280;17365;48.878;8.334;2024-03-02T01:39:50;98911.38;;;3.73;100.00
30598;BME280;17365;48.878;8.334;2024-03-02T01:42:15;98899.56;;;3.87;100.00
30598;BME280;17365;48.878;8.334;2024-03-02T01:44:41;98901.06;;;3.64;100.00
30598;BME280;17365;48.878;8.334;2024-03-02T01:47:06;98902.91;;;3.78;100.00
30598;BME280;17365;48.878;8.334;2024-03-02T01:49:32;98895.28;;;3.86;100.00
30598;BME280;17365;48.878;8.334;2024-03-02T01:51:59;98901.31;;;3.93;100.00
30598;BME280;17365;48.878;8.334;2024-03-02T01:54:24;98903.88;;;3.94;100.00
30598;BME280;17365;48.878;8.334;2024-03-02T01:56:49;98903.09;;;4.01;100.00
30598;BME280;17365;48.878;8.334;2024-03-02T01:59:16;98894.53;;;3.98;100.00
30598;BME280;17365;48.878;8.334;2024-03-02T02:01:43;98897.97;;;4.01;100.00
30598;BME280;17365;48.878;8.334;2024-03-02T02:04:08;98892.84;;;4.00;100.00
30598;BME280;17365;48.878;8.334;2024-03-02T02:06:33;98890.16;;;3.88;100.00
30598;BME280;17365;48.878;8.334;2024-03-02T02:08:59;98888.97;;;3.52;100.00
30598;BME280;17365;48.878;8.334;2024-03-02T02:11:24;98885.56;;;3.52;100.00
30598;BME280;17365;48.878;8.334;2024-03-02T02:13:50;98888.78;;;3.35;100.00
30598;BME280;17365;48.878;8.334;2024-03-02T02:16:15;98887.16;;;3.42;100.00
30598;BME280;17365;48.878;8.334;2024-03-02T02:18:40;98878.88;;;3.69;100.00
30598;BME280;17365;48.878;8.334;2024-03-02T02:21:05;98884.09;;;3.78;100.00
30598;BME280;17365;48.878;8.334;2024-03-02T02:23:31;98883.16;;;3.73;100.00
30598;BME280;17365;48.878;8.334;2024-03-02T02:25:56;98875.44;;;3.68;100.00
30598;BME280;17365;48.878;8.334;2024-03-02T02:28:21;98875.44;;;3.67;100.00
30598;BME280;17365;48.878;8.334;2024-03-02T02:30:46;98876.25;;;3.63;100.00
30598;BME280;17365;48.878;8.334;2024-03-02T02:33:12;98867.66;;;3.59;100.00
30598;BME280;17365;48.878;8.334;2024-03-02T02:35:37;98868.97;;;3.20;100.00
30598;BME280;17365;48.878;8.334;2024-03-02T02:38:03;98863.16;;;3.37;100.00
30598;BME280;17365;48.878;8.334;2024-03-02T02:40:28;98856.53;;;3.59;100.00
30598;BME280;17365;48.878;8.334;2024-03-02T02:42:57;98852.25;;;3.55;100.00
30598;BME280;17365;48.878;8.334;2024-03-02T02:45:25;98850.56;;;3.58;100.00
30598;BME280;17365;48.878;8.334;2024-03-02T02:47:50;98847.91;;;3.49;100.00
30598;BME280;17365;48.878;8.334;2024-03-02T02:50:16;98845.94;;;3.24;100.00
30598;BME280;17365;48.878;8.334;2024-03-02T02:52:42;98846.13;;;3.40;100.00
30598;BME280;17365;48.878;8.334;2024-03-02T02:55:09;98839.47;;;3.59;100.00
30598;BME280;17365;48.878;8.334;2024-03-02T02:57:35;98839.47;;;3.61;100.00
30598;BME280;17365;48.878;8.334;2024-03-02T03:00:06;98840.31;;;3.61;100.00
30598;BME280;17365;48.878;8.334;2024-03-02T03:02:36;98838.59;;;3.56;100.00
30598;BME280;17365;48.878;8.334;2024-03-02T03:05:02;98836.88;;;3.56;100.00
30598;BME280;17365;48.878;8.334;2024-03-02T03:07:29;98829.97;;;3.50;100.00
30598;BME280;17365;48.878;8.334;2024-03-02T03:09:54;98831.63;;;3.42;100.00
30598;BME280;17365;48.878;8.334;2024-03-02T03:12:20;98828.25;;;3.51;100.00
30598;BME280;17365;48.878;8.334;2024-03-02T03:14:46;98832.47;;;3.41;100.00
30598;BME280;17365;48.878;8.334;2024-03-02T03:17:11;98825.66;;;3.46;100.00
30598;BME280;17365;48.878;8.334;2024-03-02T03:19:38;98825.75;;;3.53;100.00
30598;BME280;17365;48.878;8.334;2024-03-02T03:22:03;98824.78;;;3.41;100.00
30598;BME280;17365;48.878;8.334;2024-03-02T03:24:29;98830.66;;;3.33;100.00
30598;BME280;17365;48.878;8.334;2024-03-02T03:26:54;98832.38;;;3.34;100.00
30598;BME280;17365;48.878;8.334;2024-03-02T03:29:20;98832.34;;;3.29;100.00
30598;BME280;17365;48.878;8.334;2024-03-02T03:31:45;98827.34;;;3.41;100.00
30598;BME280;17365;48.878;8.334;2024-03-02T03:34:11;98829.91;;;3.41;100.00
30598;BME280;17365;48.878;8.334;2024-03-02T03:36:41;98821.31;;;3.39;100.00
30598;BME280;17365;48.878;8.334;2024-03-02T03:39:06;98832.41;;;3.35;100.00
30598;BME280;17365;48.878;8.334;2024-03-02T03:41:31;98827.28;;;3.38;100.00
30598;BME280;17365;48.878;8.334;2024-03-02T03:44:00;98829.81;;;3.32;100.00
30598;BME280;17365;48.878;8.334;2024-03-02T03:46:26;98819.47;;;3.26;100.00
30598;BME280;17365;48.878;8.334;2024-03-02T03:48:51;98814.97;;;3.04;100.00
30598;BME280;17365;48.878;8.334;2024-03-02T03:51:16;98815.03;;;3.08;100.00
30598;BME280;17365;48.878;8.334;2024-03-02T03:53:42;98812.28;;;2.91;100.00
30598;BME280;17365;48.878;8.334;2024-03-02T03:56:07;98820.19;;;3.10;100.00
30598;BME280;17365;48.878;8.334;2024-03-02T03:58:34;98823.63;;;3.12;100.00
30598;BME280;17365;48.878;8.334;2024-03-02T04:00:59;98826.16;;;3.10;100.00
30598;BME280;17365;48.878;8.334;2024-03-02T04:03:26;98828.75;;;3.15;100.00
30598;BME280;17365;48.878;8.334;2024-03-02T04:05:51;98835.56;;;3.10;100.00
30598;BME280;17365;48.878;8.334;2024-03-02T04:08:17;98839.88;;;3.17;100.00
30598;BME280;17365;48.878;8.334;2024-03-02T04:10:43;98840.69;;;3.10;100.00
30598;BME280;17365;48.878;8.334;2024-03-02T04:13:08;98838.25;;;3.22;100.00
30598;BME280;17365;48.878;8.334;2024-03-02T04:15:34;98838.13;;;3.10;100.00
30598;BME280;17365;48.878;8.334;2024-03-02T04:18:00;98832.97;;;3.08;100.00
30598;BME280;17365;48.878;8.334;2024-03-02T04:20:25;98843.22;;;3.08;100.00
30598;BME280;17365;48.878;8.334;2024-03-02T04:22:50;98843.16;;;3.04;100.00
30598;BME280;17365;48.878;8.334;2024-03-02T04:25:16;98849.16;;;3.06;100.00
30598;BME280;17365;48.878;8.334;2024-03-02T04:27:41;98844.06;;;3.07;100.00
30598;BME280;17365;48.878;8.334;2024-03-02T04:30:06;98841.53;;;3.12;100.00
30598;BME280;17365;48.878;8.334;2024-03-02T04:32:32;98845.81;;;3.10;100.00
30598;BME280;17365;48.878;8.334;2024-03-02T04:34:57;98850.84;;;3.04;100.00
30598;BME280;17365;48.878;8.334;2024-03-02T04:37:22;98855.91;;;2.98;100.00
30598;BME280;17365;48.878;8.334;2024-03-02T04:39:48;98858.38;;;2.90;100.00
30598;BME280;17365;48.878;8.334;2024-03-02T04:42:13;98864.19;;;2.78;100.00
30598;BME280;17365;48.878;8.334;2024-03-02T04:44:38;98865.72;;;2.64;100.00
30598;BME280;17365;48.878;8.334;2024-03-02T04:47:04;98871.94;;;2.83;100.00
30598;BME280;17365;48.878;8.334;2024-03-02T04:49:30;98879.72;;;2.90;100.00
30598;BME280;17365;48.878;8.334;2024-03-02T04:51:56;98884.78;;;2.84;100.00
30598;BME280;17365;48.878;8.334;2024-03-02T04:54:22;98894.09;;;2.79;100.00
30598;BME280;17365;48.878;8.334;2024-03-02T04:56:47;98900.78;;;2.70;100.00
30598;BME280;17365;48.878;8.334;2024-03-02T04:59:17;98900.75;;;2.67;100.00
30598;BME280;17365;48.878;8.334;2024-03-02T05:01:43;98907.44;;;2.57;100.00
30598;BME280;17365;48.878;8.334;2024-03-02T05:04:08;98898.91;;;2.58;100.00
30598;BME280;17365;48.878;8.334;2024-03-02T05:06:35;98907.56;;;2.66;100.00
30598;BME280;17365;48.878;8.334;2024-03-02T05:09:00;98903.44;;;2.74;100.00
30598;BME280;17365;48.878;8.334;2024-03-02T05:11:26;98893.94;;;2.69;100.00
30598;BME280;17365;48.878;8.334;2024-03-02T05:14:15;98893.78;;;2.56;100.00
30598;BME280;17365;48.878;8.334;2024-03-02T05:16:40;98890.63;;;2.15;100.00
30598;BME280;17365;48.878;8.334;2024-03-02T05:19:07;98884.97;;;2.38;100.00
30598;BME280;17365;48.878;8.334;2024-03-02T05:21:34;98894.09;;;2.19;100.00
30598;BME280;17365;48.878;8.334;2024-03-02T05:24:01;98893.44;;;2.33;100.00
30598;BME280;17365;48.878;8.334;2024-03-02T05:26:27;98891.72;;;2.32;100.00
30598;BME280;17365;48.878;8.334;2024-03-02T05:28:52;98893.47;;;2.35;100.00
30598;BME280;17365;48.878;8.334;2024-03-02T05:31:18;98890.16;;;2.42;100.00
30598;BME280;17365;48.878;8.334;2024-03-02T05:33:43;98897.03;;;2.45;100.00
30598;BME280;17365;48.878;8.334;2024-03-02T05:36:09;98897.09;;;2.49;100.00
30598;BME280;17365;48.878;8.334;2024-03-02T05:38:34;98893.66;;;2.49;100.00
30598;BME280;17365;48.878;8.334;2024-03-02T05:41:00;98885.19;;;2.51;100.00
30598;BME280;17365;48.878;8.334;2024-03-02T05:43:25;98888.53;;;2.49;100.00
30598;BME280;17365;48.878;8.334;2024-03-02T05:45:51;98885.19;;;2.51;100.00
30598;BME280;17365;48.878;8.334;2024-03-02T05:48:16;98892.03;;;2.54;100.00
30598;BME280;17365;48.878;8.334;2024-03-02T05:50:41;98894.66;;;2.58;100.00
30598;BME280;17365;48.878;8.334;2024-03-02T05:53:06;98881.94;;;2.63;100.00
30598;BME280;17365;48.878;8.334;2024-03-02T05:55:32;98875.03;;;2.59;100.00
30598;BME280;17365;48.878;8.334;2024-03-02T05:57:57;98881.09;;;2.66;100.00
30598;BME280;17365;48.878;8.334;2024-03-02T06:00:23;98887.88;;;2.60;100.00
30598;BME280;17365;48.878;8.334;2024-03-02T06:02:48;98895.25;;;2.39;100.00
30598;BME280;17365;48.878;8.334;2024-03-02T06:05:14;98898.97;;;2.61;100.00
30598;BME280;17365;48.878;8.334;2024-03-02T06:07:40;98903.09;;;2.50;100.00
30598;BME280;17365;48.878;8.334;2024-03-02T06:10:05;98903.09;;;2.51;100.00
30598;BME280;17365;48.878;8.334;2024-03-02T06:12:32;98902.34;;;2.58;100.00
30598;BME280;17365;48.878;8.334;2024-03-02T06:14:57;98905.84;;;2.63;100.00
30598;BME280;17365;48.878;8.334;2024-03-02T06:17:23;98904.22;;;2.72;100.00
30598;BME280;17365;48.878;8.334;2024-03-02T06:19:48;98902.47;;;2.69;100.00
30598;BME280;17365;48.878;8.334;2024-03-02T06:22:15;98903.28;;;2.63;100.00
30598;BME280;17365;48.878;8.334;2024-03-02T06:24:40;98897.28;;;2.61;100.00
30598;BME280;17365;48.878;8.334;2024-03-02T06:27:05;98896.44;;;2.64;100.00
30598;BME280;17365;48.878;8.334;2024-03-02T06:29:34;98901.53;;;2.61;100.00
30598;BME280;17365;48.878;8.334;2024-03-02T06:31:59;98900.75;;;2.68;100.00
30598;BME280;17365;48.878;8.334;2024-03-02T06:34:25;98903.03;;;2.47;100.00
30598;BME280;17365;48.878;8.334;2024-03-02T06:36:50;98899.69;;;2.51;100.00
30598;BME280;17365;48.878;8.334;2024-03-02T06:39:15;98900.22;;;2.30;100.00
30598;BME280;17365;48.878;8.334;2024-03-02T06:41:41;98889.38;;;2.46;100.00
30598;BME280;17365;48.878;8.334;2024-03-02T06:44:07;98891.16;;;2.50;100.00
30598;BME280;17365;48.878;8.334;2024-03-02T06:46:34;98882.94;;;2.74;100.00
30598;BME280;17365;48.878;8.334;2024-03-02T06:49:00;98889.78;;;2.75;100.00
30598;BME280;17365;48.878;8.334;2024-03-02T06:51:27;98885.63;;;2.85;100.00
30598;BME280;17365;48.878;8.334;2024-03-02T06:53:52;98899.44;;;2.96;100.00
30598;BME280;17365;48.878;8.334;2024-03-02T06:56:18;98899.69;;;2.51;100.00
30598;BME280;17365;48.878;8.334;2024-03-02T06:58:43;98901.84;;;2.84;100.00
30598;BME280;17365;48.878;8.334;2024-03-02T07:01:08;98898.53;;;2.92;100.00
30598;BME280;17365;48.878;8.334;2024-03-02T07:03:34;98897.78;;;3.03;100.00
30598;BME280;17365;48.878;8.334;2024-03-02T07:06:00;98903.72;;;2.99;100.00
30598;BME280;17365;48.878;8.334;2024-03-02T07:08:25;98903.94;;;3.15;100.00
30598;BME280;17365;48.878;8.334;2024-03-02T07:10:51;98904.16;;;3.35;100.00
30598;BME280;17365;48.878;8.334;2024-03-02T07:13:16;98903.47;;;3.50;100.00
30598;BME280;17365;48.878;8.334;2024-03-02T07:15:43;98906.03;;;3.50;100.00
30598;BME280;17365;48.878;8.334;2024-03-02T07:18:24;98912.06;;;3.55;100.00
30598;BME280;17365;48.878;8.334;2024-03-02T07:20:50;98902.94;;;3.85;100.00
30598;BME280;17365;48.878;8.334;2024-03-02T07:23:15;98907.47;;;4.10;100.00
30598;BME280;17365;48.878;8.334;2024-03-02T07:25:40;98909.31;;;4.29;100.00
30598;BME280;17365;48.878;8.334;2024-03-02T07:28:06;98905.16;;;4.48;100.00
30598;BME280;17365;48.878;8.334;2024-03-02T07:30:33;98901.88;;;4.71;100.00
30598;BME280;17365;48.878;8.334;2024-03-02T07:32:59;98907.84;;;4.65;100.00
30598;BME280;17365;48.878;8.334;2024-03-02T07:35:24;98901.16;;;4.97;100.00
30598;BME280;17365;48.878;8.334;2024-03-02T07:37:53;98899.53;;;5.10;100.00
30598;BME280;17365;48.878;8.334;2024-03-02T07:40:18;98897.06;;;5.47;100.00
30598;BME280;17365;48.878;8.334;2024-03-02T07:42:45;98897.97;;;5.75;100.00
30598;BME280;17365;48.878;8.334;2024-03-02T07:45:10;98896.31;;;6.00;100.00
30598;BME280;17365;48.878;8.334;2024-03-02T07:47:36;98891.16;;;6.20;100.00
30598;BME280;17365;48.878;8.334;2024-03-02T07:50:01;98898.88;;;6.33;100.00
30598;BME280;17365;48.878;8.334;2024-03-02T07:52:27;98893.72;;;6.42;100.00
30598;BME280;17365;48.878;8.334;2024-03-02T07:54:53;98883.41;;;6.59;100.00
30598;BME280;17365;48.878;8.334;2024-03-02T07:57:19;98889.38;;;6.66;100.00
30598;BME280;17365;48.878;8.334;2024-03-02T07:59:44;98886.81;;;6.66;100.00
30598;BME280;17365;48.878;8.334;2024-03-02T08:02:09;98890.28;;;6.42;100.00
30598;BME280;17365;48.878;8.334;2024-03-02T08:04:35;98905.75;;;6.19;100.00
30598;BME280;17365;48.878;8.334;2024-03-02T08:07:02;98906.63;;;6.24;100.00
30598;BME280;17365;48.878;8.334;2024-03-02T08:09:28;98912.63;;;6.20;100.00
30598;BME280;17365;48.878;8.334;2024-03-02T08:11:53;98916.06;;;6.28;100.00
30598;BME280;17365;48.878;8.334;2024-03-02T08:14:18;98905.72;;;6.54;100.00
30598;BME280;17365;48.878;8.334;2024-03-02T08:16:45;98900.56;;;6.66;100.00
30598;BME280;17365;48.878;8.334;2024-03-02T08:19:10;98908.28;;;6.65;100.00
30598;BME280;17365;48.878;8.334;2024-03-02T08:21:37;98909.06;;;6.97;100.00
30598;BME280;17365;48.878;8.334;2024-03-02T08:24:04;98915.91;;;7.11;100.00
30598;BME280;17365;48.878;8.334;2024-03-02T08:26:29;98908.06;;;7.32;100.00
30598;BME280;17365;48.878;8.334;2024-03-02T08:28:59;98898.59;;;7.40;100.00
30598;BME280;17365;48.878;8.334;2024-03-02T08:31:24;98895.97;;;7.49;100.00
30598;BME280;17365;48.878;8.334;2024-03-02T08:33:49;98891.63;;;7.53;100.00
30598;BME280;17365;48.878;8.334;2024-03-02T08:36:15;98894.28;;;7.39;100.00
30598;BME280;17365;48.878;8.334;2024-03-02T08:38:41;98895.06;;;7.53;100.00
30598;BME280;17365;48.878;8.334;2024-03-02T08:41:06;98895.03;;;7.59;100.00
30598;BME280;17365;48.878;8.334;2024-03-02T08:43:32;98896.84;;;7.44;100.00
30598;BME280;17365;48.878;8.334;2024-03-02T08:45:58;98893.38;;;7.49;100.00
30598;BME280;17365;48.878;8.334;2024-03-02T08:48:23;98888.03;;;7.77;100.00
30598;BME280;17365;48.878;8.334;2024-03-02T08:50:49;98884.50;;;7.90;100.00
30598;BME280;17365;48.878;8.334;2024-03-02T08:53:14;98892.31;;;7.84;100.00
30598;BME280;17365;48.878;8.334;2024-03-02T08:55:45;98884.44;;;7.98;100.00
30598;BME280;17365;48.878;8.334;2024-03-02T08:58:10;98892.09;;;8.11;100.00
30598;BME280;17365;48.878;8.334;2024-03-02T09:00:35;98884.63;;;7.75;100.00
30598;BME280;17365;48.878;8.334;2024-03-02T09:03:01;98886.00;;;8.18;100.00
30598;BME280;17365;48.878;8.334;2024-03-02T09:05:26;98885.81;;;8.43;100.00
30598;BME280;17365;48.878;8.334;2024-03-02T09:07:51;98885.78;;;8.46;100.00
30598;BME280;17365;48.878;8.334;2024-03-02T09:10:16;98882.44;;;8.36;100.00
30598;BME280;17365;48.878;8.334;2024-03-02T09:12:42;98885.81;;;8.44;100.00
30598;BME280;17365;48.878;8.334;2024-03-02T09:15:09;98894.41;;;8.46;100.00
30598;BME280;17365;48.878;8.334;2024-03-02T09:17:34;98887.25;;;8.71;100.00
30598;BME280;17365;48.878;8.334;2024-03-02T09:20:00;98885.41;;;8.83;100.00
30598;BME280;17365;48.878;8.334;2024-03-02T09:22:25;98889.72;;;8.84;100.00
30598;BME280;17365;48.878;8.334;2024-03-02T09:24:50;98889.00;;;8.69;100.00
30598;BME280;17365;48.878;8.334;2024-03-02T09:27:15;98884.38;;;8.99;100.00
30598;BME280;17365;48.878;8.334;2024-03-02T09:29:41;98881.78;;;8.99;100.00
30598;BME280;17365;48.878;8.334;2024-03-02T09:32:07;98880.13;;;8.95;100.00
30598;BME280;17365;48.878;8.334;2024-03-02T09:34:32;98872.47;;;8.86;100.00
30598;BME280;17365;48.878;8.334;2024-03-02T09:36:57;98871.53;;;8.90;100.00
30598;BME280;17365;48.878;8.334;2024-03-02T09:39:23;98867.94;;;9.03;100.00
30598;BME280;17365;48.878;8.334;2024-03-02T09:41:50;98871.34;;;9.05;100.00
30598;BME280;17365;48.878;8.334;2024-03-02T09:44:16;98871.31;;;9.10;100.00
30598;BME280;17365;48.878;8.334;2024-03-02T09:46:41;98869.34;;;9.28;100.00
30598;BME280;17365;48.878;8.334;2024-03-02T09:49:09;98874.38;;;9.41;100.00
30598;BME280;17365;48.878;8.334;2024-03-02T09:51:35;98870.63;;;9.60;100.00
30598;BME280;17365;48.878;8.334;2024-03-02T09:54:00;98874.63;;;9.82;100.00
30598;BME280;17365;48.878;8.334;2024-03-02T09:56:27;98875.31;;;9.93;100.00
30598;BME280;17365;48.878;8.334;2024-03-02T09:58:52;98880.31;;;10.06;100.00
30598;BME280;17365;48.878;8.334;2024-03-02T10:01:17;98873.19;;;10.18;100.00
30598;BME280;17365;48.878;8.334;2024-03-02T10:03:44;98867.06;;;10.26;99.92
30598;BME280;17365;48.878;8.334;2024-03-02T10:06:24;98872.06;;;10.36;97.99
30598;BME280;17365;48.878;8.334;2024-03-02T10:08:50;98871.19;;;10.37;96.54
30598;BME280;17365;48.878;8.334;2024-03-02T10:11:33;98867.56;;;10.46;96.54
30598;BME280;17365;48.878;8.334;2024-03-02T10:14:07;98855.00;;;10.71;93.94
30598;BME280;17365;48.878;8.334;2024-03-02T10:16:34;98850.16;;;10.53;89.08
30598;BME280;17365;48.878;8.334;2024-03-02T10:19:22;98858.84;;;10.50;91.28
30598;BME280;17365;48.878;8.334;2024-03-02T10:21:49;98855.22;;;10.60;90.94
30598;BME280;17365;48.878;8.334;2024-03-02T10:24:16;98851.59;;;10.69;94.02
30598;BME280;17365;48.878;8.334;2024-03-02T10:26:41;98844.47;;;10.80;90.47
30598;BME280;17365;48.878;8.334;2024-03-02T10:29:09;98848.34;;;11.02;91.99
30598;BME280;17365;48.878;8.334;2024-03-02T10:31:38;98834.38;;;11.08;91.94
30598;BME280;17365;48.878;8.334;2024-03-02T10:34:05;98837.63;;;11.18;91.87
30598;BME280;17365;48.878;8.334;2024-03-02T10:36:30;98834.16;;;11.19;88.48
30598;BME280;17365;48.878;8.334;2024-03-02T10:38:56;98822.75;;;11.26;88.64
30598;BME280;17365;48.878;8.334;2024-03-02T10:41:24;98822.31;;;11.46;88.30
30598;BME280;17365;48.878;8.334;2024-03-02T10:43:52;98818.53;;;11.60;89.67
30598;BME280;17365;48.878;8.334;2024-03-02T10:46:19;98817.69;;;11.58;86.50
30598;BME280;17365;48.878;8.334;2024-03-02T10:48:46;98814.38;;;11.52;86.30
30598;BME280;17365;48.878;8.334;2024-03-02T10:51:11;98814.69;;;11.75;84.21
30598;BME280;17365;48.878;8.334;2024-03-02T10:53:37;98806.44;;;11.59;80.98
30598;BME280;17365;48.878;8.334;2024-03-02T10:56:03;98797.22;;;11.83;82.75
30598;BME280;17365;48.878;8.334;2024-03-02T10:58:32;98799.81;;;11.83;82.96
30598;BME280;17365;48.878;8.334;2024-03-02T11:01:03;98802.19;;;11.92;81.80
30598;BME280;17365;48.878;8.334;2024-03-02T11:03:35;98800.94;;;12.07;81.60
30598;BME280;17365;48.878;8.334;2024-03-02T11:06:03;98793.00;;;12.13;81.36
30598;BME280;17365;48.878;8.334;2024-03-02T11:08:33;98797.09;;;12.23;78.21
30598;BME280;17365;48.878;8.334;2024-03-02T11:11:06;98804.75;;;12.28;77.35
30598;BME280;17365;48.878;8.334;2024-03-02T11:13:33;98799.94;;;12.45;79.05
30598;BME280;17365;48.878;8.334;2024-03-02T11:16:18;98800.22;;;12.36;76.54
30598;BME280;17365;48.878;8.334;2024-03-02T11:18:47;98790.56;;;12.40;77.49
30598;BME280;17365;48.878;8.334;2024-03-02T11:21:18;98785.00;;;12.53;77.85
30598;BME280;17365;48.878;8.334;2024-03-02T11:23:43;98786.44;;;12.64;76.04
30598;BME280;17365;48.878;8.334;2024-03-02T11:26:22;98777.53;;;12.72;73.60
30598;BME280;17365;48.878;8.334;2024-03-02T11:28:50;98774.88;;;12.74;72.59
30598;BME280;17365;48.878;8.334;2024-03-02T11:31:16;98768.69;;;12.78;73.89
30598;BME280;17365;48.878;8.334;2024-03-02T11:33:42;98765.22;;;12.77;70.38
30598;BME280;17365;48.878;8.334;2024-03-02T11:36:08;98762.31;;;12.88;71.40
30598;BME280;17365;48.878;8.334;2024-03-02T11:38:35;98755.25;;;12.93;69.21
30598;BME280;17365;48.878;8.334;2024-03-02T11:41:02;98742.03;;;12.99;64.58
30598;BME280;17365;48.878;8.334;2024-03-02T11:43:29;98739.59;;;12.95;65.92
30598;BME280;17365;48.878;8.334;2024-03-02T11:45:58;98737.06;;;13.21;66.97
30598;BME280;17365;48.878;8.334;2024-03-02T11:48:25;98745.00;;;13.45;67.24
30598;BME280;17365;48.878;8.334;2024-03-02T11:50:51;98736.00;;;13.55;65.98
30598;BME280;17365;48.878;8.334;2024-03-02T11:53:17;98733.41;;;13.55;66.93
30598;BME280;17365;48.878;8.334;2024-03-02T11:55:44;98726.88;;;13.42;62.34
30598;BME280;17365;48.878;8.334;2024-03-02T11:58:13;98726.31;;;13.58;62.33
30598;BME280;17365;48.878;8.334;2024-03-02T12:00:39;98715.59;;;13.67;64.59
30598;BME280;17365;48.878;8.334;2024-03-02T12:03:06;98711.91;;;13.75;64.19
30598;BME280;17365;48.878;8.334;2024-03-02T12:05:33;98711.97;;;13.73;61.58
30598;BME280;17365;48.878;8.334;2024-03-02T12:08:05;98704.72;;;13.81;59.21
30598;BME280;17365;48.878;8.334;2024-03-02T12:10:35;98711.66;;;13.82;59.21
30598;BME280;17365;48.878;8.334;2024-03-02T12:13:05;98717.59;;;13.86;57.19
30598;BME280;17365;48.878;8.334;2024-03-02T12:15:38;98700.94;;;13.90;60.66
30598;BME280;17365;48.878;8.334;2024-03-02T12:18:04;98700.16;;;14.13;60.77
30598;BME280;17365;48.878;8.334;2024-03-02T12:20:33;98699.81;;;14.22;59.47
30598;BME280;17365;48.878;8.334;2024-03-02T12:23:00;98697.66;;;14.10;58.82
30598;BME280;17365;48.878;8.334;2024-03-02T12:25:28;98701.31;;;14.29;59.36
30598;BME280;17365;48.878;8.334;2024-03-02T12:27:56;98693.97;;;14.15;55.97
30598;BME280;17365;48.878;8.334;2024-03-02T12:30:22;98693.31;;;14.34;56.77
30598;BME280;17365;48.878;8.334;2024-03-02T12:32:48;98697.34;;;14.19;54.13
30598;BME280;17365;48.878;8.334;2024-03-02T12:35:14;98686.06;;;14.42;56.03
30598;BME280;17365;48.878;8.334;2024-03-02T12:37:44;98677.41;;;14.41;55.25
30598;BME280;17365;48.878;8.334;2024-03-02T12:40:11;98673.09;;;14.40;56.04
30598;BME280;17365;48.878;8.334;2024-03-02T12:42:37;98670.28;;;14.46;55.10
30598;BME280;17365;48.878;8.334;2024-03-02T12:45:03;98668.34;;;14.51;54.91
30598;BME280;17365;48.878;8.334;2024-03-02T12:47:29;98664.25;;;14.44;55.01
30598;BME280;17365;48.878;8.334;2024-03-02T12:49:54;98660.75;;;14.45;55.00
30598;BME280;17365;48.878;8.334;2024-03-02T12:52:21;98657.22;;;14.46;55.31
30598;BME280;17365;48.878;8.334;2024-03-02T12:54:46;98658.84;;;14.49;55.23
30598;BME280;17365;48.878;8.334;2024-03-02T12:57:17;98655.63;;;14.42;53.12